Time;durP1;ratioP1;P1;durP2;ratioP2;P2;SDS_P1;SDS_P2;PMS_P1;PMS_P2;Temp;Humidity;BMP_temperature;BMP_pressure;BME280_temperature;BME280_humidity;BME280_pressure;Samples;Min_cycle;Max_cycle;Signal;HPM_P1;HPM_P2
2022/05/11 00:00:36;;;;;;;5.75;4.22;;;18.50;67.20;;;;;;6152532;23;20381;-78
2022/05/11 00:03:04;;;;;;;7.03;4.65;;;18.40;68.00;;;;;;6175431;23;20374;-78
2022/05/11 00:05:32;;;;;;;4.93;4.40;;;18.20;70.20;;;;;;6176178;23;20374;-78
2022/05/11 00:07:59;;;;;;;8.50;4.80;;;18.00;70.60;;;;;;6175036;23;20830;-77
2022/05/11 00:10:26;;;;;;;5.40;4.90;;;17.90;71.60;;;;;;6176117;23;20421;-78
2022/05/11 00:12:53;;;;;;;5.50;4.53;;;17.70;72.40;;;;;;6175344;23;20409;-80
2022/05/11 00:15:22;;;;;;;7.75;4.82;;;17.70;72.60;;;;;;6176930;23;20374;-79
2022/05/11 00:17:49;;;;;;;6.00;5.50;;;17.50;73.40;;;;;;6175588;23;20381;-80
2022/05/11 00:20:18;;;;;;;9.77;5.67;;;17.30;75.10;;;;;;6152347;23;20456;-78
2022/05/11 00:22:45;;;;;;;6.78;5.70;;;17.20;75.90;;;;;;6175645;23;20389;-79
2022/05/11 00:25:14;;;;;;;6.67;5.77;;;17.10;76.10;;;;;;6176397;23;20456;-80
2022/05/11 00:27:41;;;;;;;6.40;5.70;;;17.10;75.60;;;;;;6176444;23;20375;-79
2022/05/11 00:30:09;;;;;;;6.07;5.38;;;17.10;76.00;;;;;;6176145;23;20362;-80
2022/05/11 00:32:37;;;;;;;6.30;5.20;;;17.20;76.10;;;;;;6176953;23;20385;-80
2022/05/11 00:35:05;;;;;;;5.85;5.25;;;17.20;76.40;;;;;;6151421;23;20385;-79
2022/05/11 00:37:32;;;;;;;5.63;5.05;;;17.10;76.40;;;;;;6175653;23;20450;-80
2022/05/11 00:39:59;;;;;;;8.02;5.72;;;17.00;77.20;;;;;;6175511;23;20867;-78
2022/05/11 00:42:26;;;;;;;5.72;5.13;;;16.90;77.40;;;;;;6177251;23;20389;-79
2022/05/11 00:44:54;;;;;;;6.03;4.97;;;16.90;77.20;;;;;;6176979;23;20895;-80
2022/05/11 00:47:30;;;;;;;7.80;5.72;;;16.90;76.90;;;;;;6176509;23;20377;-79
2022/05/11 00:50:00;;;;;;;7.43;5.70;;;16.70;78.80;;;;;;6175567;23;20378;-80
2022/05/11 00:52:36;;;;;;;5.57;4.63;;;16.60;79.10;;;;;;6176744;23;20642;-77
2022/05/11 00:55:08;;;;;;;6.47;5.30;;;16.60;78.40;;;;;;6140019;23;20755;-79
2022/05/11 00:58:00;;;;;;;5.25;4.70;;;16.60;79.20;;;;;;6176326;23;20457;-79
2022/05/11 01:00:28;;;;;;;7.20;4.90;;;16.50;77.60;;;;;;6175656;23;20747;-79
2022/05/11 01:03:20;;;;;;;5.75;5.00;;;16.50;79.20;;;;;;6153874;23;20377;-77
2022/05/11 01:05:47;;;;;;;7.15;5.38;;;16.40;79.70;;;;;;6174468;23;20374;-78
2022/05/11 01:08:18;;;;;;;7.75;5.25;;;16.30;79.90;;;;;;6176275;23;20377;-79
2022/05/11 01:10:45;;;;;;;7.18;5.18;;;16.30;79.90;;;;;;6151972;23;20369;-78
2022/05/11 01:13:15;;;;;;;7.45;5.47;;;16.30;79.80;;;;;;6175015;23;20386;-78
2022/05/11 01:15:47;;;;;;;6.28;5.70;;;16.20;81.10;;;;;;6175532;23;20823;-80
2022/05/11 01:18:14;;;;;;;5.88;5.28;;;16.30;80.50;;;;;;6175255;23;20735;-78
2022/05/11 01:20:41;;;;;;;6.60;5.43;;;16.20;80.80;;;;;;6175616;23;20432;-80
2022/05/11 01:23:20;;;;;;;5.82;5.22;;;16.10;80.60;;;;;;6175147;23;20918;-80
2022/05/11 01:25:47;;;;;;;6.63;5.47;;;16.10;80.00;;;;;;6175525;23;20700;-80
2022/05/11 01:28:16;;;;;;;7.22;5.20;;;16.00;80.90;;;;;;6174981;23;20374;-78
2022/05/11 01:30:49;;;;;;;6.97;5.28;;;16.00;81.00;;;;;;6174678;23;20850;-80
2022/05/11 01:33:19;;;;;;;6.35;5.40;;;15.90;80.60;;;;;;6174930;23;20378;-80
2022/05/11 01:35:49;;;;;;;6.43;5.30;;;16.00;80.00;;;;;;6175599;23;20747;-79
2022/05/11 01:38:34;;;;;;;7.00;4.97;;;16.10;79.80;;;;;;6174955;23;20384;-79
2022/05/11 01:41:02;;;;;;;5.95;5.10;;;16.10;79.10;;;;;;6174962;23;20377;-79
2022/05/11 01:43:33;;;;;;;7.07;5.13;;;16.10;79.30;;;;;;6175322;23;20902;-80
2022/05/11 01:46:00;;;;;;;6.20;5.60;;;15.90;79.90;;;;;;6174485;23;20378;-78
2022/05/11 01:48:28;;;;;;;6.57;4.78;;;15.90;80.00;;;;;;6152659;23;20374;-79
2022/05/11 01:50:55;;;;;;;6.13;5.53;;;15.90;79.40;;;;;;6174081;23;20428;-80
2022/05/11 01:53:23;;;;;;;9.05;5.60;;;15.80;80.30;;;;;;6175581;23;20441;-78
2022/05/11 01:55:50;;;;;;;6.10;5.53;;;15.80;79.80;;;;;;6175171;23;20375;-80
2022/05/11 01:58:18;;;;;;;9.23;5.78;;;15.70;81.20;;;;;;6174924;23;20849;-79
2022/05/11 02:00:47;;;;;;;6.15;5.60;;;15.60;80.80;;;;;;6174459;23;20370;-78
2022/05/11 02:03:18;;;;;;;6.37;5.77;;;15.60;81.50;;;;;;6174970;23;20428;-80
2022/05/11 02:08:34;;;;;;;7.97;6.60;;;15.50;81.60;;;;;;6152003;23;20370;-79
2022/05/11 02:11:02;;;;;;;7.13;6.40;;;15.40;83.80;;;;;;6174171;23;20905;-79
2022/05/11 02:13:29;;;;;;;7.03;5.88;;;15.30;83.30;;;;;;6152052;23;20390;-80
2022/05/11 02:15:56;;;;;;;7.20;6.03;;;15.30;83.70;;;;;;6174435;23;20381;-78
2022/05/11 02:18:24;;;;;;;7.18;6.00;;;15.20;83.70;;;;;;6151849;23;20382;-80
2022/05/11 02:20:51;;;;;;;7.50;6.03;;;15.20;82.90;;;;;;6151678;23;20374;-80
2022/05/11 02:23:20;;;;;;;6.22;5.63;;;15.30;83.30;;;;;;6175079;23;20397;-79
2022/05/11 02:25:48;;;;;;;5.45;4.90;;;15.20;82.60;;;;;;6174008;23;20834;-78
2022/05/11 02:28:16;;;;;;;5.55;4.78;;;15.40;80.40;;;;;;6175985;23;20377;-80
2022/05/11 02:30:45;;;;;;;6.20;4.13;;;15.60;78.60;;;;;;6150824;23;20981;-78
2022/05/11 02:33:13;;;;;;;5.22;4.10;;;15.70;77.20;;;;;;6175340;23;20382;-80
2022/05/11 02:35:41;;;;;;;5.20;4.20;;;15.80;76.30;;;;;;6174692;23;20374;-80
2022/05/11 02:38:11;;;;;;;4.20;3.80;;;16.00;75.50;;;;;;6175581;23;20370;-78
2022/05/11 02:40:39;;;;;;;4.25;3.83;;;16.00;74.50;;;;;;6175104;23;20385;-77
2022/05/11 02:43:10;;;;;;;4.07;3.67;;;16.20;73.50;;;;;;6174911;23;20370;-78
2022/05/11 02:45:41;;;;;;;7.72;4.15;;;16.30;73.20;;;;;;6175143;23;20905;-79
2022/05/11 02:48:11;;;;;;;4.95;3.75;;;16.40;72.70;;;;;;6174656;23;20664;-77
2022/05/11 02:50:41;;;;;;;4.30;3.83;;;16.40;72.70;;;;;;6175208;23;20385;-80
2022/05/11 02:53:10;;;;;;;4.90;4.00;;;16.40;72.50;;;;;;6174051;23;20774;-78
2022/05/11 02:55:55;;;;;;;4.97;3.70;;;16.40;72.20;;;;;;6151515;23;20843;-78
2022/05/11 02:58:26;;;;;;;4.90;4.37;;;16.40;73.00;;;;;;6151201;23;20739;-79
2022/05/11 03:00:56;;;;;;;5.28;4.63;;;16.20;74.90;;;;;;6174708;23;20386;-78
2022/05/11 03:03:23;;;;;;;5.68;4.20;;;16.10;75.80;;;;;;6174097;23;20374;-78
2022/05/11 03:05:52;;;;;;;5.18;4.68;;;16.00;76.40;;;;;;6152868;23;20384;-78
2022/05/11 03:08:20;;;;;;;5.45;4.50;;;15.80;77.00;;;;;;6176673;23;20405;-78
2022/05/11 03:10:48;;;;;;;4.88;3.90;;;15.70;75.90;;;;;;6177026;23;20886;-79
2022/05/11 03:13:16;;;;;;;4.38;3.97;;;15.80;75.00;;;;;;6176712;23;20382;-78
2022/05/11 03:15:43;;;;;;;4.18;3.78;;;15.90;74.00;;;;;;6176810;23;20433;-80
2022/05/11 03:18:12;;;;;;;7.97;3.92;;;16.00;73.60;;;;;;6176782;23;20421;-78
2022/05/11 03:20:39;;;;;;;5.35;3.92;;;16.10;73.30;;;;;;6177123;23;20380;-78
2022/05/11 03:23:06;;;;;;;4.65;3.50;;;16.10;72.80;;;;;;6176130;23;20433;-79
2022/05/11 03:25:33;;;;;;;4.30;3.90;;;16.20;72.40;;;;;;6177369;23;20850;-80
2022/05/11 03:27:59;;;;;;;5.40;3.90;;;16.30;72.00;;;;;;6175365;23;20378;-79
2022/05/11 03:30:26;;;;;;;5.05;3.80;;;16.30;72.10;;;;;;6176859;23;20374;-78
2022/05/11 03:35:39;;;;;;;6.28;3.55;;;16.30;72.50;;;;;;6152702;23;20436;-79
2022/05/11 03:38:06;;;;;;;5.45;3.78;;;16.30;72.40;;;;;;6176266;23;20402;-78
2022/05/11 03:40:38;;;;;;;5.40;3.60;;;16.20;72.50;;;;;;6175921;23;20374;-78
2022/05/11 03:43:05;;;;;;;4.43;4.03;;;16.10;72.70;;;;;;6176326;23;20388;-78
2022/05/11 03:45:32;;;;;;;4.20;3.80;;;16.10;73.20;;;;;;6175196;23;20377;-78
2022/05/11 03:47:59;;;;;;;5.43;3.70;;;16.00;73.60;;;;;;6176960;23;20688;-80
2022/05/11 03:50:27;;;;;;;3.97;3.58;;;16.00;72.50;;;;;;6175516;23;20370;-78
2022/05/11 03:52:55;;;;;;;3.90;3.58;;;16.10;72.30;;;;;;6176173;23;20448;-78
2022/05/11 03:55:23;;;;;;;4.45;4.03;;;16.10;72.70;;;;;;6175817;23;20424;-78
2022/05/11 03:57:50;;;;;;;4.63;3.53;;;16.10;73.30;;;;;;6177008;23;20370;-78
2022/05/11 04:00:21;;;;;;;5.68;4.60;;;16.00;73.30;;;;;;6152542;23;20425;-78
2022/05/11 04:02:51;;;;;;;5.93;3.97;;;15.80;75.40;;;;;;6153127;23;20384;-78
2022/05/11 04:05:20;;;;;;;4.80;3.75;;;15.80;74.70;;;;;;6150725;23;20901;-80
2022/05/11 04:07:47;;;;;;;4.75;3.88;;;15.80;73.60;;;;;;6176565;23;20374;-78
2022/05/11 04:10:16;;;;;;;4.80;3.90;;;15.80;73.40;;;;;;6176501;23;20874;-80
2022/05/11 04:12:43;;;;;;;6.10;3.90;;;15.80;72.80;;;;;;6152028;23;20416;-77
2022/05/11 04:15:11;;;;;;;4.47;3.83;;;16.00;72.20;;;;;;6176533;23;20373;-78
2022/05/11 04:17:38;;;;;;;4.60;4.18;;;16.00;71.80;;;;;;6150025;23;20417;-78
2022/05/11 04:20:07;;;;;;;4.75;3.97;;;16.20;71.40;;;;;;6176032;23;20378;-80
2022/05/11 04:22:33;;;;;;;5.38;3.83;;;16.20;71.20;;;;;;6175210;23;20374;-77
2022/05/11 04:25:01;;;;;;;4.63;3.60;;;16.40;70.30;;;;;;6176104;23;20398;-78
2022/05/11 04:27:29;;;;;;;5.72;3.53;;;16.40;70.00;;;;;;6174955;23;20827;-79
2022/05/11 04:29:56;;;;;;;5.30;4.00;;;16.50;69.70;;;;;;6176180;23;20381;-78
2022/05/11 04:32:23;;;;;;;4.15;3.30;;;16.60;69.30;;;;;;6175009;23;20838;-80
2022/05/11 04:34:50;;;;;;;5.22;4.05;;;16.60;69.80;;;;;;6175850;23;20441;-80
2022/05/11 04:37:18;;;;;;;9.97;3.77;;;16.60;69.80;;;;;;6176240;23;20437;-78
2022/05/11 04:39:45;;;;;;;4.50;3.90;;;16.50;69.70;;;;;;6174341;23;20392;-77
2022/05/11 04:42:12;;;;;;;4.53;3.47;;;16.50;70.80;;;;;;6152760;23;20759;-80
2022/05/11 04:44:39;;;;;;;4.85;3.97;;;16.50;70.60;;;;;;6175226;23;20378;-80
2022/05/11 04:47:19;;;;;;;3.80;3.50;;;16.40;70.50;;;;;;6175635;23;20382;-77
2022/05/11 04:49:46;;;;;;;4.07;3.60;;;16.40;70.70;;;;;;6175480;23;20441;-79
2022/05/11 04:52:15;;;;;;;4.63;3.38;;;16.40;70.30;;;;;;6152369;23;20378;-77
2022/05/11 04:54:50;;;;;;;5.85;3.72;;;16.40;70.30;;;;;;6151528;23;20731;-78
2022/05/11 04:57:19;;;;;;;5.07;3.60;;;16.50;70.20;;;;;;6175274;23;20381;-78
2022/05/11 04:59:46;;;;;;;3.80;3.35;;;16.60;69.50;;;;;;6175652;23;20373;-78
2022/05/11 05:02:19;;;;;;;4.93;3.50;;;16.60;69.70;;;;;;6175824;23;20366;-77
2022/05/11 05:04:47;;;;;;;4.43;3.50;;;16.60;69.40;;;;;;6176435;23;20370;-80
2022/05/11 05:07:15;;;;;;;4.68;4.28;;;16.70;69.70;;;;;;6176066;23;20381;-78
2022/05/11 05:09:42;;;;;;;5.03;3.95;;;16.60;71.70;;;;;;6175997;23;20425;-78
2022/05/11 05:12:11;;;;;;;4.35;3.88;;;16.50;72.60;;;;;;6175425;23;20371;-80
2022/05/11 05:14:38;;;;;;;4.90;3.95;;;16.50;72.50;;;;;;6174233;23;20382;-79
2022/05/11 05:17:08;;;;;;;4.18;3.80;;;16.40;73.70;;;;;;6176529;23;20444;-77
2022/05/11 05:19:41;;;;;;;5.10;4.60;;;16.30;74.00;;;;;;6176105;23;20386;-78
2022/05/11 05:22:08;;;;;;;5.00;4.50;;;16.30;74.70;;;;;;6175440;23;20451;-79
2022/05/11 05:24:35;;;;;;;4.15;3.75;;;16.30;75.00;;;;;;6151292;23;20413;-79
2022/05/11 05:27:02;;;;;;;5.45;3.20;;;16.30;74.10;;;;;;6176756;23;20371;-78
2022/05/11 05:32:16;;;;;;;5.35;3.70;;;16.60;70.40;;;;;;6152085;23;20401;-79
2022/05/11 05:34:43;;;;;;;3.92;3.40;;;16.70;69.70;;;;;;6150706;23;20449;-77
2022/05/11 05:37:16;;;;;;;4.60;3.65;;;16.90;69.80;;;;;;6174716;23;20456;-79
2022/05/11 05:39:44;;;;;;;5.50;3.53;;;17.00;69.10;;;;;;6176654;23;20751;-77
2022/05/11 05:42:23;;;;;;;4.97;3.80;;;17.10;69.00;;;;;;6175800;23;20425;-79
2022/05/11 05:44:51;;;;;;;5.50;3.50;;;17.20;68.00;;;;;;6176262;23;21275;-80
2022/05/11 05:47:18;;;;;;;4.68;3.60;;;17.20;68.00;;;;;;6176086;23;20374;-78
2022/05/11 05:49:45;;;;;;;4.43;3.13;;;17.30;66.90;;;;;;6174286;23;20386;-80
2022/05/11 05:52:18;;;;;;;4.47;3.20;;;17.50;66.00;;;;;;6177439;23;20374;-80
2022/05/11 05:54:45;;;;;;;3.22;2.92;;;17.60;66.10;;;;;;6176308;23;20386;-79
2022/05/11 05:57:13;;;;;;;4.75;3.53;;;17.60;66.00;;;;;;6175690;23;20370;-79
2022/05/11 05:59:41;;;;;;;4.82;3.28;;;17.60;66.50;;;;;;6150718;23;20369;-77
2022/05/11 06:02:14;;;;;;;5.82;3.45;;;17.70;66.10;;;;;;6175510;23;20430;-79
2022/05/11 06:04:43;;;;;;;6.28;3.63;;;17.80;65.70;;;;;;6175421;23;20695;-78
2022/05/11 06:07:11;;;;;;;4.90;3.20;;;17.80;65.50;;;;;;6151977;23;20378;-79
2022/05/11 06:09:39;;;;;;;3.83;3.13;;;17.90;65.00;;;;;;6175602;23;20378;-80
2022/05/11 06:12:08;;;;;;;4.00;3.20;;;17.80;65.30;;;;;;6176258;23;20378;-80
2022/05/11 06:14:36;;;;;;;7.00;3.60;;;17.90;65.60;;;;;;6175720;23;20390;-79
2022/05/11 06:17:03;;;;;;;4.03;3.45;;;17.90;66.00;;;;;;6176876;23;20397;-78
2022/05/11 06:19:30;;;;;;;4.85;3.40;;;18.00;66.20;;;;;;6175813;23;20378;-81
2022/05/11 06:21:57;;;;;;;4.70;3.55;;;18.00;65.30;;;;;;6175233;23;20421;-79
2022/05/11 06:24:30;;;;;;;4.20;3.22;;;18.10;64.90;;;;;;6150868;23;20747;-79
2022/05/11 06:26:57;;;;;;;3.75;3.25;;;18.20;65.00;;;;;;6180193;23;20378;-77
2022/05/11 06:29:30;;;;;;;5.32;3.80;;;18.20;65.00;;;;;;6175645;23;20858;-78
2022/05/11 06:31:57;;;;;;;4.68;3.42;;;18.30;64.10;;;;;;6172636;23;20374;-79
2022/05/11 06:34:25;;;;;;;4.78;3.10;;;18.40;64.00;;;;;;6175371;23;20436;-78
2022/05/11 06:36:52;;;;;;;4.43;2.92;;;18.40;64.00;;;;;;6174418;23;20385;-78
2022/05/11 06:39:19;;;;;;;4.32;2.90;;;18.50;64.30;;;;;;6175114;23;20386;-77
2022/05/11 06:41:46;;;;;;;7.30;3.25;;;18.60;63.60;;;;;;6176174;23;20370;-79
2022/05/11 06:44:13;;;;;;;3.90;2.78;;;18.70;63.70;;;;;;6175967;23;20382;-79
2022/05/11 06:46:40;;;;;;;3.63;2.78;;;18.80;62.50;;;;;;6173820;23;20382;-79
2022/05/11 06:49:08;;;;;;;3.97;3.50;;;18.90;62.70;;;;;;6180457;23;20374;-79
2022/05/11 06:51:35;;;;;;;3.45;2.90;;;19.10;62.20;;;;;;6175838;23;20483;-79
2022/05/11 06:59:33;;;;;;;4.10;3.00;;;19.60;60.40;;;;;;6152191;23;20899;-80
2022/05/11 07:02:04;;;;;;;3.80;2.67;;;19.80;60.50;;;;;;6175543;23;20378;-78
2022/05/11 07:04:37;;;;;;;4.32;2.83;;;19.90;59.60;;;;;;6174675;23;20382;-80
2022/05/11 07:07:06;;;;;;;3.08;2.40;;;19.90;59.80;;;;;;6176481;23;20722;-79
2022/05/11 07:09:35;;;;;;;2.70;2.40;;;19.90;59.70;;;;;;6174398;23;20818;-79
2022/05/11 07:12:17;;;;;;;4.53;3.17;;;20.10;61.00;;;;;;6174418;23;20755;-79
2022/05/11 07:14:57;;;;;;;3.78;2.78;;;20.20;60.00;;;;;;6174018;23;20917;-79
2022/05/11 07:17:26;;;;;;;4.47;3.50;;;20.40;60.50;;;;;;6176730;23;20404;-79
2022/05/11 07:19:54;;;;;;;4.88;3.67;;;20.50;61.00;;;;;;6174425;23;20832;-80
2022/05/11 07:22:21;;;;;;;6.37;5.53;;;20.50;61.60;;;;;;6179939;23;20931;-79
2022/05/11 07:24:48;;;;;;;6.97;5.75;;;20.60;62.40;;;;;;6173856;23;20413;-79
2022/05/11 07:27:17;;;;;;;6.97;5.63;;;20.50;63.10;;;;;;6174596;23;20905;-77
2022/05/11 07:29:43;;;;;;;9.90;6.20;;;20.70;63.60;;;;;;6176232;23;20374;-80
2022/05/11 07:32:10;;;;;;;7.97;6.25;;;20.70;63.40;;;;;;6179450;23;20378;-80
2022/05/11 07:34:38;;;;;;;8.40;6.30;;;20.80;64.50;;;;;;6177217;23;20378;-80
2022/05/11 07:37:06;;;;;;;8.40;6.07;;;20.90;64.30;;;;;;6179129;23;20380;-79
2022/05/11 07:39:33;;;;;;;8.03;6.33;;;21.00;64.20;;;;;;6177553;23;20376;-80
2022/05/11 07:42:00;;;;;;;7.38;5.88;;;21.00;63.70;;;;;;6175332;23;20388;-80
2022/05/11 07:44:27;;;;;;;7.93;6.30;;;21.10;63.20;;;;;;6175820;23;20366;-80
2022/05/11 07:46:54;;;;;;;8.73;6.82;;;21.30;63.30;;;;;;6174429;23;20409;-80
2022/05/11 07:49:21;;;;;;;7.38;6.20;;;21.30;61.60;;;;;;6151780;23;20374;-80
2022/05/11 07:51:50;;;;;;;7.43;6.53;;;21.40;61.90;;;;;;6174570;23;20370;-80
2022/05/11 07:54:17;;;;;;;8.93;7.00;;;21.50;63.20;;;;;;6176981;23;20390;-80
2022/05/11 08:02:17;;;;;;;7.93;7.10;;;21.80;62.00;;;;;;6152513;23;20370;-80
2022/05/11 08:04:44;;;;;;;7.13;5.85;;;21.80;60.20;;;;;;6177313;23;20901;-80
2022/05/11 08:07:13;;;;;;;9.82;5.95;;;21.90;61.10;;;;;;6176409;23;20377;-79
2022/05/11 08:09:41;;;;;;;5.82;4.85;;;21.90;58.80;;;;;;6179037;23;20381;-79
2022/05/11 08:12:08;;;;;;;7.70;4.70;;;22.10;56.20;;;;;;6176281;23;20727;-79
2022/05/11 08:14:35;;;;;;;7.20;5.22;;;22.10;57.80;;;;;;6176637;23;20468;-80
2022/05/11 08:17:02;;;;;;;7.22;4.90;;;22.20;56.80;;;;;;6152555;23;20412;-79
2022/05/11 08:19:29;;;;;;;6.38;4.70;;;22.30;57.10;;;;;;6176650;23;20684;-80
2022/05/11 08:21:56;;;;;;;12.75;5.05;;;22.50;57.80;;;;;;6175938;23;20385;-80
2022/05/11 08:24:24;;;;;;;6.70;5.47;;;22.50;57.30;;;;;;6176053;23;20366;-80
2022/05/11 08:26:51;;;;;;;6.07;5.45;;;22.60;56.90;;;;;;6152736;23;20456;-80
2022/05/11 08:34:52;;;;;;;7.63;5.65;;;22.70;57.40;;;;;;6152405;23;20445;-79
2022/05/11 08:37:19;;;;;;;8.37;5.87;;;22.90;56.90;;;;;;6175364;23;20854;-77
2022/05/11 08:39:48;;;;;;;7.10;5.20;;;22.40;57.70;;;;;;6175850;23;20839;-79
2022/05/11 08:42:16;;;;;;;6.85;5.22;;;22.60;60.00;;;;;;6175432;23;20438;-80
2022/05/11 08:44:48;;;;;;;6.93;6.03;;;22.90;58.00;;;;;;6176388;23;20374;-80
2022/05/11 08:47:44;;;;;;;7.85;5.68;;;23.20;55.90;;;;;;6176549;23;21951;-81
2022/05/11 08:50:17;;;;;;;8.20;5.30;;;23.30;54.80;;;;;;6175152;23;20374;-80
2022/05/11 08:53:00;;;;;;;7.47;5.32;;;23.10;56.10;;;;;;6177164;23;20385;-80
2022/05/11 08:55:37;;;;;;;6.07;5.23;;;23.40;55.70;;;;;;6175732;23;20759;-80
2022/05/11 08:58:09;;;;;;;6.18;5.22;;;23.30;55.70;;;;;;6176971;23;20452;-80
2022/05/11 09:00:41;;;;;;;8.15;5.50;;;23.60;55.80;;;;;;6176743;23;20929;-80
2022/05/11 09:03:33;;;;;;;6.03;5.10;;;23.50;54.50;;;;;;6177796;23;20434;-80
2022/05/11 09:06:23;;;;;;;6.15;5.22;;;23.50;55.70;;;;;;6180958;23;20434;-78
2022/05/11 09:08:51;;;;;;;5.70;5.20;;;23.40;55.70;;;;;;6176223;23;20425;-80
2022/05/11 09:11:32;;;;;;;7.65;6.20;;;23.70;56.50;;;;;;6178007;23;20374;-80
2022/05/11 09:14:00;;;;;;;7.35;4.97;;;23.60;55.50;;;;;;6176264;23;20398;-78
2022/05/11 09:16:46;;;;;;;6.38;5.22;;;23.80;55.10;;;;;;6176802;23;20417;-80
2022/05/11 09:19:15;;;;;;;6.00;5.40;;;24.00;56.90;;;;;;6150955;23;20362;-78
2022/05/11 09:21:54;;;;;;;7.03;5.20;;;24.20;55.70;;;;;;6176428;23;20373;-80
2022/05/11 09:24:35;;;;;;;5.70;5.10;;;24.30;54.50;;;;;;6151017;23;20373;-80
2022/05/11 09:27:20;;;;;;;5.82;5.00;;;24.20;55.30;;;;;;6178180;23;20437;-80
2022/05/11 09:29:56;;;;;;;6.70;5.35;;;24.30;54.40;;;;;;6177450;23;20381;-80
2022/05/11 09:32:36;;;;;;;6.87;5.43;;;24.40;56.60;;;;;;6175415;23;20393;-80
2022/05/11 09:35:37;;;;;;;7.30;5.57;;;24.60;55.50;;;;;;6153546;23;20390;-80
2022/05/11 09:38:19;;;;;;;5.93;5.43;;;24.40;54.00;;;;;;6174575;23;20429;-77
2022/05/11 09:40:58;;;;;;;7.15;5.82;;;24.30;56.00;;;;;;6176928;23;20397;-78
2022/05/11 09:43:43;;;;;;;6.93;5.72;;;24.50;55.50;;;;;;6151735;23;20429;-81
2022/05/11 09:46:31;;;;;;;8.25;5.97;;;24.80;56.00;;;;;;6152644;23;20699;-80
2022/05/11 09:49:04;;;;;;;6.82;6.13;;;24.90;54.10;;;;;;6175967;23;20440;-80
2022/05/11 09:51:35;;;;;;;9.27;5.82;;;24.90;55.90;;;;;;6176378;23;20382;-82
2022/05/11 09:54:28;;;;;;;7.40;5.13;;;24.60;55.30;;;;;;6152509;23;20409;-77
2022/05/11 09:57:04;;;;;;;5.70;5.10;;;24.50;56.20;;;;;;6175093;23;20366;-80
2022/05/11 09:59:37;;;;;;;7.57;5.20;;;24.80;55.50;;;;;;6174648;23;20374;-80
2022/05/11 10:02:20;;;;;;;5.00;4.40;;;25.10;55.80;;;;;;6151864;23;20909;-80
2022/05/11 10:05:02;;;;;;;5.93;4.97;;;25.40;53.80;;;;;;6175945;23;20366;-78
2022/05/11 10:07:36;;;;;;;6.23;4.40;;;25.50;54.00;;;;;;6175644;23;20378;-80
2022/05/11 10:10:27;;;;;;;4.88;4.30;;;25.60;52.20;;;;;;6150210;23;20400;-80
2022/05/11 10:13:27;;;;;;;5.50;4.80;;;25.90;53.80;;;;;;6174625;23;20378;-81
2022/05/11 10:21:50;;;;;;;5.50;4.10;;;26.00;50.50;;;;;;6151340;23;20457;-81
2022/05/11 10:22:02;;;;;;;7.28;4.63;;;26.00;50.70;;;;;;6153197;23;20378;-81
2022/05/11 10:24:29;;;;;;;5.22;4.18;;;25.90;50.20;;;;;;6175517;23;20440;-80
2022/05/11 10:27:09;;;;;;;5.63;4.23;;;26.00;47.70;;;;;;6174024;23;20692;-78
2022/05/11 10:30:00;;;;;;;7.68;4.80;;;26.10;48.20;;;;;;6174935;23;20906;-80
2022/05/11 10:32:49;;;;;;;6.78;4.10;;;25.70;50.00;;;;;;6175804;23;20865;-78
2022/05/11 10:35:36;;;;;;;5.90;3.83;;;26.00;50.50;;;;;;6175083;23;20456;-78
2022/05/11 10:38:44;;;;;;;5.07;4.00;;;26.00;48.20;;;;;;6174857;23;20370;-80
2022/05/11 10:41:41;;;;;;;3.97;3.53;;;26.50;48.20;;;;;;6174955;23;20445;-82
2022/05/11 10:44:27;;;;;;;4.10;3.10;;;26.60;48.10;;;;;;6151310;23;20378;-80
2022/05/11 10:47:10;;;;;;;5.68;4.00;;;26.70;43.50;;;;;;6175662;23;20755;-81
2022/05/11 10:50:07;;;;;;;5.20;3.80;;;26.90;46.50;;;;;;6150240;23;20374;-78
2022/05/11 10:52:49;;;;;;;4.67;3.67;;;26.70;46.90;;;;;;6174797;23;20465;-81
2022/05/11 10:55:51;;;;;;;5.07;3.30;;;26.80;46.30;;;;;;6175001;23;20416;-80
2022/05/11 10:58:34;;;;;;;7.63;3.50;;;26.70;45.40;;;;;;6175129;23;20382;-80
2022/05/11 11:01:16;;;;;;;5.40;4.20;;;26.80;43.60;;;;;;6176821;23;20370;-80
2022/05/11 11:04:08;;;;;;;6.70;3.30;;;27.00;46.60;;;;;;6175606;23;20389;-80
2022/05/11 11:07:11;;;;;;;5.28;3.85;;;26.90;45.70;;;;;;6174837;23;20378;-81
2022/05/11 11:10:03;;;;;;;5.57;3.60;;;26.70;46.00;;;;;;6174508;23;20424;-78
2022/05/11 11:12:52;;;;;;;4.55;3.10;;;27.00;46.20;;;;;;6173741;23;20446;-80
2022/05/11 11:15:23;;;;;;;5.00;3.63;;;26.50;46.30;;;;;;6176108;23;20385;-81
2022/05/11 11:17:51;;;;;;;4.88;2.90;;;26.70;44.60;;;;;;6177567;23;20425;-80
2022/05/11 11:20:19;;;;;;;4.87;3.50;;;26.50;42.80;;;;;;6175721;23;20374;-78
2022/05/11 11:23:14;;;;;;;6.15;3.45;;;26.60;44.00;;;;;;6149411;23;20747;-80
2022/05/11 11:25:51;;;;;;;4.07;2.80;;;26.80;43.20;;;;;;6174387;23;20834;-78
2022/05/11 11:28:29;;;;;;;5.37;3.00;;;27.10;43.20;;;;;;6154651;23;20373;-78
2022/05/11 11:30:58;;;;;;;5.95;2.90;;;27.40;42.20;;;;;;6176401;23;20381;-80
2022/05/11 11:33:27;;;;;;;5.20;3.15;;;27.20;40.10;;;;;;6177163;23;20378;-80
2022/05/11 11:36:00;;;;;;;7.45;3.17;;;27.40;41.50;;;;;;6177686;23;20433;-80
2022/05/11 11:38:43;;;;;;;4.63;3.45;;;27.50;41.20;;;;;;6155083;23;20457;-80
2022/05/11 11:41:28;;;;;;;6.45;3.70;;;27.60;41.30;;;;;;6176170;23;20426;-80
2022/05/11 11:44:01;;;;;;;5.85;2.85;;;27.70;42.20;;;;;;6175878;23;20444;-78
2022/05/11 11:46:36;;;;;;;4.82;3.53;;;27.50;40.50;;;;;;6178081;23;20374;-80
2022/05/11 11:49:33;;;;;;;6.30;3.28;;;27.30;41.20;;;;;;6153090;23;20711;-81
2022/05/11 11:52:03;;;;;;;5.57;3.88;;;27.70;41.70;;;;;;6175377;23;20378;-78
2022/05/11 11:54:46;;;;;;;5.80;4.03;;;27.30;42.10;;;;;;6176002;23;20378;-80
2022/05/11 11:57:14;;;;;;;4.90;3.58;;;27.20;44.10;;;;;;6176555;23;20358;-80
2022/05/11 11:59:44;;;;;;;6.40;3.95;;;27.60;44.20;;;;;;6176310;23;20382;-81
2022/05/11 12:02:38;;;;;;;7.22;4.35;;;27.70;44.30;;;;;;6175498;23;20370;-80
2022/05/11 12:05:43;;;;;;;7.40;4.65;;;28.00;44.00;;;;;;6174111;23;20370;-80
2022/05/11 12:16:53;;;;;;;7.22;4.60;;;27.50;44.30;;;;;;6154087;23;20432;-78
2022/05/11 12:19:22;;;;;;;5.28;4.40;;;28.00;45.80;;;;;;6151940;23;20370;-81
2022/05/11 12:22:19;;;;;;;6.28;4.70;;;27.90;43.70;;;;;;6155585;23;20377;-81
2022/05/11 12:24:49;;;;;;;9.60;5.87;;;28.20;44.50;;;;;;6152840;23;20369;-79
2022/05/11 12:27:42;;;;;;;6.27;5.43;;;28.30;44.60;;;;;;6175792;23;20939;-81
2022/05/11 12:30:24;;;;;;;7.83;5.27;;;28.30;43.90;;;;;;6146183;23;20370;-77
2022/05/11 12:33:04;;;;;;;9.27;4.50;;;28.10;44.10;;;;;;6175743;23;20739;-81
2022/05/11 12:35:33;;;;;;;5.70;4.15;;;27.70;44.40;;;;;;6176929;23;20457;-81
2022/05/11 12:38:06;;;;;;;7.57;4.35;;;27.90;44.40;;;;;;6176667;23;20661;-81
2022/05/11 12:40:51;;;;;;;7.70;4.67;;;28.50;44.40;;;;;;6176779;23;20898;-81
2022/05/11 12:43:33;;;;;;;8.05;4.60;;;28.20;42.90;;;;;;6153039;23;20385;-82
2022/05/11 12:46:13;;;;;;;8.40;4.18;;;28.70;42.30;;;;;;6176669;23;20382;-81
2022/05/11 12:48:51;;;;;;;5.77;4.10;;;28.60;41.80;;;;;;6176041;23;20425;-79
2022/05/11 12:51:31;;;;;;;5.80;4.60;;;28.40;40.70;;;;;;6177310;23;20433;-80
2022/05/11 12:54:02;;;;;;;7.30;4.50;;;28.50;41.90;;;;;;6176012;23;20378;-80
2022/05/11 12:56:32;;;;;;;5.97;4.53;;;28.70;42.40;;;;;;6152007;23;20456;-81
2022/05/11 12:59:05;;;;;;;5.53;3.87;;;28.90;41.90;;;;;;6174994;23;21204;-80
2022/05/11 13:01:34;;;;;;;8.27;4.20;;;29.10;40.70;;;;;;6153262;23;20445;-81
2022/05/11 13:04:14;;;;;;;6.25;4.30;;;28.80;41.50;;;;;;6152514;23;20412;-78
2022/05/11 13:06:45;;;;;;;6.72;4.35;;;29.00;40.60;;;;;;6152522;23;20440;-81
2022/05/11 13:09:31;;;;;;;7.65;4.75;;;29.20;39.90;;;;;;6174990;23;20441;-79
2022/05/11 13:11:59;;;;;;;6.45;3.78;;;28.60;41.40;;;;;;6150167;23;20434;-81
2022/05/11 13:14:37;;;;;;;6.07;4.20;;;28.80;41.00;;;;;;6153795;23;20699;-78
2022/05/11 13:17:17;;;;;;;5.63;3.92;;;29.30;41.10;;;;;;6174609;23;20787;-78
2022/05/11 13:19:55;;;;;;;8.15;4.18;;;29.20;40.20;;;;;;6176011;23;20382;-80
2022/05/11 13:22:25;;;;;;;5.80;3.73;;;29.80;39.50;;;;;;6176557;23;20374;-81
2022/05/11 13:25:05;;;;;;;5.53;3.90;;;29.60;39.10;;;;;;6177626;23;20873;-81
2022/05/11 13:27:40;;;;;;;7.93;4.00;;;29.50;40.70;;;;;;6176627;23;20362;-81
2022/05/11 13:30:36;;;;;;;5.15;3.65;;;29.50;40.80;;;;;;6175988;23;20431;-81
2022/05/11 13:33:24;;;;;;;6.07;3.47;;;29.60;38.90;;;;;;6176285;23;20740;-79
2022/05/11 13:36:17;;;;;;;5.57;3.67;;;29.80;38.80;;;;;;6176293;23;20378;-78
2022/05/11 13:39:08;;;;;;;6.68;3.35;;;29.30;38.60;;;;;;6176001;23;20468;-81
2022/05/11 13:41:55;;;;;;;4.13;3.00;;;28.80;39.80;;;;;;6175414;23;20382;-81
2022/05/11 13:44:48;;;;;;;6.38;3.25;;;29.10;39.40;;;;;;6176965;23;20381;-81
2022/05/11 13:50:28;;;;;;;6.03;3.17;;;28.60;40.50;;;;;;6152955;23;20382;-81
2022/05/11 13:52:58;;;;;;;4.05;2.88;;;28.80;39.10;;;;;;6174853;23;20381;-81
2022/05/11 13:55:42;;;;;;;4.28;3.17;;;29.20;38.70;;;;;;6152001;23;20378;-79
2022/05/11 13:58:33;;;;;;;3.60;2.88;;;29.40;36.70;;;;;;6175348;23;20397;-80